createdAt,value
2019-01-24T00:01:17.030Z,11.77
2019-01-24T00:03:48.351Z,12.47
2019-01-24T00:06:18.308Z,11.60
2019-01-24T00:08:48.111Z,11.93
2019-01-24T00:11:17.894Z,11.87
2019-01-24T00:13:47.703Z,12.23
2019-01-24T00:16:17.574Z,11.57
2019-01-24T00:18:47.378Z,11.13
2019-01-24T00:21:17.266Z,12.87
2019-01-24T00:23:47.146Z,11.63
2019-01-24T00:26:17.023Z,11.40
2019-01-24T00:28:46.853Z,12.97
2019-01-24T00:31:16.674Z,12.30
2019-01-24T00:33:47.216Z,12.53
2019-01-24T00:36:17.634Z,12.57
2019-01-24T00:38:47.515Z,11.77
2019-01-24T00:41:17.383Z,12.13
2019-01-24T00:43:47.250Z,12.33
2019-01-24T00:46:17.033Z,12.27
2019-01-24T00:48:47.134Z,11.80
2019-01-24T00:51:19.245Z,12.30
2019-01-24T00:53:49.054Z,13.33
2019-01-24T00:56:18.925Z,13.20
2019-01-24T00:58:48.798Z,13.00
2019-01-24T01:01:18.820Z,12.57
2019-01-24T01:03:48.602Z,13.90
2019-01-24T01:06:18.545Z,11.83
2019-01-24T01:08:48.419Z,12.90
2019-01-24T01:11:18.208Z,12.87
2019-01-24T01:13:48.130Z,13.53
2019-01-24T01:16:18.014Z,12.10
2019-01-24T01:18:47.826Z,12.83
2019-01-24T01:21:17.730Z,12.53
2019-01-24T01:23:47.542Z,12.37
2019-01-24T01:26:17.427Z,11.87
2019-01-24T01:28:47.754Z,13.27
2019-01-24T01:31:17.673Z,13.23
2019-01-24T01:33:49.334Z,12.30
2019-01-24T01:36:19.513Z,12.20
2019-01-24T01:38:49.378Z,12.00
2019-01-24T01:41:19.275Z,12.73
2019-01-24T01:43:49.062Z,13.47
2019-01-24T01:46:18.922Z,13.23
2019-01-24T01:48:49.416Z,12.43
2019-01-24T01:51:20.483Z,13.30
2019-01-24T01:53:50.399Z,13.30
2019-01-24T01:56:20.253Z,13.37
2019-01-24T01:58:50.129Z,13.00
2019-01-24T02:01:19.958Z,13.23
2019-01-24T02:03:49.786Z,13.40
2019-01-24T02:06:19.641Z,13.27
2019-01-24T02:08:49.998Z,13.10
2019-01-24T02:11:19.865Z,12.10
2019-01-24T02:13:49.801Z,12.93
2019-01-24T02:16:19.630Z,13.20
2019-01-24T02:18:49.433Z,12.83
2019-01-24T02:21:19.379Z,14.00
2019-01-24T02:23:49.172Z,12.87
2019-01-24T02:26:19.040Z,13.30
2019-01-24T02:28:48.835Z,15.40
2019-01-24T02:31:19.402Z,14.10
2019-01-24T02:33:50.931Z,13.47
2019-01-24T02:36:20.834Z,13.20
2019-01-24T02:38:50.639Z,13.57
2019-01-24T02:41:21.386Z,14.53
2019-01-24T02:43:51.228Z,14.43
2019-01-24T02:46:21.103Z,14.50
2019-01-24T02:48:50.915Z,13.63
2019-01-24T02:51:21.345Z,14.90
2019-01-24T02:53:51.222Z,14.00
2019-01-24T02:56:21.026Z,15.33
2019-01-24T02:58:50.826Z,14.40
2019-01-24T03:01:20.686Z,14.30
2019-01-24T03:03:50.482Z,15.17
2019-01-24T03:06:20.479Z,16.10
2019-01-24T03:08:50.323Z,15.73
2019-01-24T03:11:20.193Z,15.03
2019-01-24T03:13:50.005Z,15.23
2019-01-24T03:16:19.803Z,13.93
2019-01-24T03:18:49.603Z,16.77
2019-01-24T03:21:19.421Z,15.10
2019-01-24T03:23:49.306Z,16.77
2019-01-24T03:26:19.098Z,14.80
2019-01-24T03:28:49.870Z,15.10
2019-01-24T03:34:24.777Z,17.97
2019-01-24T03:36:55.155Z,17.70
2019-01-24T03:39:24.975Z,16.13
2019-01-24T03:41:54.954Z,16.60
2019-01-24T03:44:24.755Z,17.73
2019-01-24T03:46:54.545Z,16.83
2019-01-24T03:49:24.405Z,16.67
2019-01-24T03:51:54.252Z,18.83
2019-01-24T03:54:24.094Z,18.23
2019-01-24T03:56:53.916Z,15.87
2019-01-24T03:59:24.067Z,15.83
2019-01-24T04:01:53.938Z,17.50
2019-01-24T04:04:23.747Z,17.00
2019-01-24T04:06:53.595Z,18.17
2019-01-24T04:09:23.386Z,17.83
2019-01-24T04:11:53.462Z,19.57
2019-01-24T04:14:23.408Z,17.23
2019-01-24T04:16:53.283Z,18.93
2019-01-24T04:19:23.203Z,18.70
2019-01-24T04:21:52.999Z,18.20
2019-01-24T04:24:22.814Z,18.23
2019-01-24T04:26:52.622Z,19.73
2019-01-24T04:29:23.270Z,18.17
2019-01-24T04:31:54.635Z,20.23
2019-01-24T04:34:25.154Z,18.17
2019-01-24T04:36:55.036Z,18.07
2019-01-24T04:39:24.839Z,18.40
2019-01-24T04:41:54.640Z,18.00
2019-01-24T04:44:24.468Z,18.90
2019-01-24T04:46:54.343Z,20.27
2019-01-24T04:49:24.304Z,19.93
2019-01-24T04:51:54.112Z,20.27
2019-01-24T04:54:24.257Z,19.20
2019-01-24T04:56:54.063Z,20.23
2019-01-24T04:59:23.876Z,18.17
2019-01-24T05:01:53.685Z,22.43
2019-01-24T05:04:23.534Z,19.20
2019-01-24T05:06:53.410Z,19.83
2019-01-24T05:09:23.226Z,19.90
2019-01-24T05:11:53.042Z,21.00
2019-01-24T05:14:22.849Z,19.80
2019-01-24T05:16:52.850Z,19.43
2019-01-24T05:19:22.667Z,20.33
2019-01-24T05:21:52.474Z,20.80
2019-01-24T05:24:22.392Z,20.97
2019-01-24T05:26:53.229Z,19.30
2019-01-24T05:29:23.427Z,21.77
2019-01-24T05:31:54.833Z,22.23
2019-01-24T05:34:25.946Z,19.30
2019-01-24T05:36:55.758Z,20.77
2019-01-24T05:39:25.651Z,19.83
2019-01-24T05:41:55.542Z,20.87
2019-01-24T05:44:25.354Z,21.70
2019-01-24T05:46:55.161Z,18.23
2019-01-24T05:49:25.194Z,20.13
2019-01-24T05:51:55.098Z,20.43
2019-01-24T05:54:24.923Z,21.43
2019-01-24T05:56:54.739Z,19.93
2019-01-24T05:59:24.558Z,21.17
2019-01-24T06:01:54.752Z,22.77
2019-01-24T06:04:24.599Z,21.30
2019-01-24T06:06:54.475Z,20.03
2019-01-24T06:09:24.274Z,22.27
2019-01-24T06:11:54.540Z,19.17
2019-01-24T06:14:24.819Z,22.10
2019-01-24T06:16:55.839Z,21.00
2019-01-24T06:19:25.655Z,19.27
2019-01-24T06:21:55.467Z,24.93
2019-01-24T06:24:25.387Z,22.00
2019-01-24T06:26:55.365Z,24.70
2019-01-24T06:29:25.259Z,21.33
2019-01-24T06:31:55.533Z,21.17
2019-01-24T06:34:26.238Z,20.60
2019-01-24T06:36:56.069Z,21.93
2019-01-24T06:39:25.895Z,21.97
2019-01-24T06:41:55.710Z,22.50
2019-01-24T06:44:25.528Z,19.97
2019-01-24T06:46:55.337Z,24.43
2019-01-24T06:49:25.973Z,23.87
2019-01-24T06:51:56.248Z,21.73
2019-01-24T06:54:26.079Z,24.10
2019-01-24T06:56:55.932Z,20.90
2019-01-24T06:59:25.757Z,23.30
2019-01-24T07:01:55.567Z,24.47
2019-01-24T07:04:25.406Z,23.73
2019-01-24T07:06:55.326Z,22.47
2019-01-24T07:09:25.230Z,21.47
2019-01-24T07:11:55.353Z,21.37
2019-01-24T07:14:26.322Z,23.57
2019-01-24T07:16:56.187Z,20.13
2019-01-24T07:19:26.099Z,23.00
2019-01-24T07:21:55.928Z,23.20
2019-01-24T07:24:25.752Z,23.27
2019-01-24T07:26:55.582Z,21.70
2019-01-24T07:29:26.183Z,25.37
2019-01-24T07:31:56.731Z,24.57
2019-01-24T07:34:28.056Z,28.43
2019-01-24T07:36:58.114Z,25.20
2019-01-24T07:39:27.966Z,29.30
2019-01-24T07:41:57.837Z,28.70
2019-01-24T07:44:28.241Z,27.13
2019-01-24T07:46:58.178Z,28.73
2019-01-24T07:49:28.070Z,27.63
2019-01-24T07:51:58.033Z,27.03
2019-01-24T07:54:27.965Z,27.30
2019-01-24T07:56:58.082Z,30.40
2019-01-24T07:59:27.968Z,27.50
2019-01-24T08:01:57.922Z,31.60
2019-01-24T08:04:28.684Z,28.90
2019-01-24T08:06:59.432Z,30.10
2019-01-24T08:09:29.327Z,31.80
2019-01-24T08:11:59.246Z,26.83
2019-01-24T08:14:29.804Z,30.30
2019-01-24T08:17:00.207Z,26.63
2019-01-24T08:19:30.052Z,32.30
2019-01-24T08:22:00.206Z,27.27
2019-01-24T08:24:32.075Z,28.23
2019-01-24T08:27:02.007Z,33.27
2019-01-24T08:29:31.934Z,31.37
2019-01-24T08:32:02.893Z,30.33
2019-01-24T08:34:33.075Z,27.10
2019-01-24T08:37:04.105Z,32.07
2019-01-24T08:39:34.147Z,27.93
2019-01-24T08:42:04.118Z,30.67
2019-01-24T08:44:34.066Z,31.17
2019-01-24T08:47:04.071Z,29.27
2019-01-24T08:49:33.895Z,26.50
2019-01-24T08:52:04.478Z,26.47
2019-01-24T08:54:34.403Z,26.63
2019-01-24T08:57:04.395Z,26.60
2019-01-24T08:59:34.310Z,27.80
2019-01-24T09:02:06.623Z,29.03
2019-01-24T09:04:36.681Z,29.63
2019-01-24T09:07:06.866Z,28.80
2019-01-24T09:09:37.290Z,25.53
2019-01-24T09:12:07.231Z,26.93
2019-01-24T09:14:37.278Z,25.80
2019-01-24T09:17:07.330Z,29.33
2019-01-24T09:19:37.198Z,28.50
2019-01-24T09:22:07.069Z,28.77
2019-01-24T09:24:38.152Z,27.53
2019-01-24T09:27:08.349Z,28.77
2019-01-24T09:29:38.661Z,30.53
2019-01-24T09:32:10.043Z,29.40
2019-01-24T09:34:40.662Z,27.47
2019-01-24T09:37:12.032Z,27.40
2019-01-24T09:39:43.610Z,26.30
2019-01-24T09:42:14.698Z,29.30
2019-01-24T09:44:44.879Z,30.60
2019-01-24T09:47:15.062Z,32.10
2019-01-24T09:49:45.012Z,27.83
2019-01-24T09:52:14.909Z,32.47
2019-01-24T09:54:45.315Z,30.77
2019-01-24T09:57:15.421Z,32.10
2019-01-24T09:59:45.486Z,28.63
2019-01-24T10:02:16.103Z,33.00
2019-01-24T10:04:45.950Z,29.93
2019-01-24T10:07:16.308Z,30.77
2019-01-24T10:09:46.208Z,29.77
2019-01-24T10:14:54.194Z,32.07
2019-01-24T10:17:24.175Z,33.57
2019-01-24T10:19:54.103Z,34.83
2019-01-24T10:22:23.952Z,31.77
2019-01-24T10:24:54.093Z,29.37
2019-01-24T10:27:24.115Z,27.60
2019-01-24T10:29:54.706Z,26.93
2019-01-24T10:32:25.025Z,29.10
2019-01-24T10:34:56.004Z,35.37
2019-01-24T10:37:25.996Z,28.30
2019-01-24T10:39:56.449Z,30.73
2019-01-24T10:42:52.354Z,30.97
2019-01-24T10:45:22.728Z,27.53
2019-01-24T10:47:53.630Z,28.37
2019-01-24T10:50:26.197Z,34.37
2019-01-24T10:52:56.574Z,29.63
2019-01-24T10:55:27.950Z,33.57
2019-01-24T10:58:00.299Z,31.40
2019-01-24T11:00:35.634Z,32.63
2019-01-24T11:03:07.812Z,30.27
2019-01-24T11:05:37.760Z,33.33
2019-01-24T11:08:07.739Z,29.17
2019-01-24T11:10:37.824Z,33.27
2019-01-24T11:13:08.139Z,29.77
2019-01-24T11:15:39.331Z,30.10
2019-01-24T11:18:09.736Z,29.77
2019-01-24T11:20:39.723Z,31.00
2019-01-24T11:23:09.791Z,28.20
2019-01-24T11:25:40.605Z,31.97
2019-01-24T11:28:10.791Z,32.00
2019-01-24T11:30:41.177Z,32.53
2019-01-24T11:33:11.858Z,33.67
2019-01-24T11:35:43.137Z,32.40
2019-01-24T11:38:13.319Z,32.73
2019-01-24T11:40:43.863Z,28.77
2019-01-24T11:43:13.846Z,28.93
2019-01-24T11:45:45.171Z,32.57
2019-01-24T11:48:15.127Z,30.37
2019-01-24T11:50:45.047Z,31.33
2019-01-24T11:53:15.753Z,29.90
2019-01-24T11:55:45.619Z,33.45
2019-01-24T11:58:15.596Z,31.00
2019-01-24T12:00:50.718Z,28.57
2019-01-24T12:03:20.989Z,28.07
2019-01-24T12:05:51.040Z,30.30
2019-01-24T12:08:23.057Z,33.47
2019-01-24T12:10:53.218Z,35.50
2019-01-24T12:13:24.639Z,28.47
2019-01-24T12:15:55.737Z,33.93
2019-01-24T12:18:27.294Z,29.20
2019-01-24T12:20:57.290Z,32.23
2019-01-24T12:23:27.425Z,30.37
2019-01-24T12:25:57.772Z,27.77
2019-01-24T12:28:29.703Z,31.63
2019-01-24T12:30:59.753Z,29.70
2019-01-24T12:33:30.418Z,29.90
2019-01-24T12:36:00.330Z,30.57
2019-01-24T12:38:30.207Z,27.90
2019-01-24T12:41:01.036Z,29.53
2019-01-24T12:43:31.260Z,30.07
2019-01-24T12:46:01.313Z,31.67
2019-01-24T12:48:32.067Z,31.63
2019-01-24T12:51:28.218Z,29.93
2019-01-24T12:54:01.369Z,28.47
2019-01-24T12:56:32.123Z,29.50
2019-01-24T12:59:03.718Z,29.40
2019-01-24T13:01:34.123Z,29.07
2019-01-24T13:04:04.871Z,31.77
2019-01-24T13:06:35.582Z,27.20
2019-01-24T13:09:08.387Z,28.50
2019-01-24T13:11:38.862Z,29.57
2019-01-24T13:14:09.099Z,29.07
2019-01-24T13:16:39.062Z,32.83
2019-01-24T13:22:08.414Z,30.73
2019-01-24T13:24:38.698Z,27.80
2019-01-24T13:27:08.563Z,31.47
2019-01-24T13:29:38.374Z,31.30
2019-01-24T13:32:10.059Z,31.27
2019-01-24T13:34:41.922Z,33.03
2019-01-24T13:37:13.125Z,30.40
2019-01-24T13:39:43.345Z,32.03
2019-01-24T13:42:13.286Z,32.50
2019-01-24T13:44:43.179Z,30.40
2019-01-24T13:47:13.618Z,30.23
2019-01-24T13:49:43.609Z,28.90
2019-01-24T13:52:13.450Z,30.43
2019-01-24T13:54:43.351Z,33.97
2019-01-24T13:57:13.569Z,28.73
2019-01-24T13:59:43.444Z,31.27
2019-01-24T14:02:13.319Z,28.43
2019-01-24T14:04:46.242Z,30.67
2019-01-24T14:07:16.251Z,35.13
2019-01-24T14:09:47.233Z,35.10
2019-01-24T14:12:17.751Z,31.67
2019-01-24T14:14:47.716Z,29.93
2019-01-24T14:17:18.070Z,31.60
2019-01-24T14:19:49.092Z,30.67
2019-01-24T14:22:19.070Z,26.77
2019-01-24T14:24:48.977Z,31.77
2019-01-24T14:27:18.886Z,29.60
2019-01-24T14:29:49.003Z,31.57
2019-01-24T14:32:20.151Z,27.03
2019-01-24T14:34:50.182Z,30.73
2019-01-24T14:37:20.802Z,33.53
2019-01-24T14:39:50.752Z,32.27
2019-01-24T14:45:21.478Z,35.33
2019-01-24T14:47:51.579Z,31.77
2019-01-24T14:50:23.364Z,29.87
2019-01-24T14:52:53.999Z,31.13
2019-01-24T14:55:24.092Z,29.80
2019-01-24T14:57:54.102Z,30.63
2019-01-24T15:00:29.575Z,30.33
2019-01-24T15:02:59.897Z,28.53
2019-01-24T15:05:30.983Z,34.10
2019-01-24T15:08:02.817Z,32.13
2019-01-24T15:10:33.356Z,32.40
2019-01-24T15:13:03.853Z,31.43
2019-01-24T15:15:33.963Z,30.07
2019-01-24T15:18:04.715Z,33.77
2019-01-24T15:20:39.447Z,27.53
2019-01-24T15:23:10.176Z,32.23
2019-01-24T15:25:40.162Z,30.93
2019-01-24T15:28:10.297Z,32.17
2019-01-24T15:30:40.417Z,32.00
2019-01-24T15:33:12.078Z,30.53
2019-01-24T15:35:42.062Z,35.23
2019-01-24T15:38:12.812Z,33.07
2019-01-24T15:40:42.819Z,35.67
2019-01-24T15:43:13.265Z,29.47
2019-01-24T15:45:43.371Z,32.53
2019-01-24T15:48:13.342Z,31.63
2019-01-24T15:50:43.602Z,34.73
2019-01-24T15:53:16.274Z,32.97
2019-01-24T15:55:46.319Z,33.13
2019-01-24T15:58:17.305Z,33.17
2019-01-24T16:00:48.803Z,31.47
2019-01-24T16:03:18.711Z,30.27
2019-01-24T16:05:48.620Z,33.40
2019-01-24T16:08:18.542Z,32.40
2019-01-24T16:10:48.409Z,31.53
2019-01-24T16:13:18.279Z,34.17
2019-01-24T16:15:48.432Z,31.50
2019-01-24T16:18:19.022Z,32.13
2019-01-24T16:20:48.866Z,28.67
2019-01-24T16:23:19.120Z,30.17
2019-01-24T16:25:49.142Z,28.60
2019-01-24T16:28:24.619Z,28.07
2019-01-24T16:30:51.440Z,30.00
2019-01-24T16:33:22.610Z,28.33
2019-01-24T16:35:53.029Z,29.80
2019-01-24T16:38:22.883Z,35.20
2019-01-24T16:40:52.703Z,34.30
2019-01-24T16:43:22.584Z,30.73
2019-01-24T16:45:52.447Z,28.33
2019-01-24T16:48:22.271Z,32.50
2019-01-24T16:50:52.178Z,27.83
2019-01-24T16:53:23.377Z,32.30
2019-01-24T16:55:53.784Z,29.00
2019-01-24T16:58:23.631Z,30.60
2019-01-24T17:00:57.961Z,29.27
2019-01-24T17:03:27.972Z,29.17
2019-01-24T17:05:57.800Z,28.67
2019-01-24T17:08:31.131Z,27.63
2019-01-24T17:11:01.379Z,30.13
2019-01-24T17:13:31.291Z,29.33
2019-01-24T17:16:01.389Z,31.07
2019-01-24T17:18:31.304Z,32.07
2019-01-24T17:21:01.258Z,30.87
2019-01-24T17:23:31.650Z,29.10
2019-01-24T17:26:01.906Z,28.90
2019-01-24T17:28:31.902Z,29.83
2019-01-24T17:31:01.819Z,29.33
2019-01-24T17:33:33.755Z,31.60
2019-01-24T17:36:06.077Z,31.50
2019-01-24T17:38:35.999Z,32.77
2019-01-24T17:41:05.956Z,31.33
2019-01-24T17:43:36.499Z,31.70
2019-01-24T17:46:08.171Z,33.17
2019-01-24T17:48:38.173Z,29.20
2019-01-24T17:51:08.152Z,30.63
2019-01-24T17:53:38.091Z,27.60
2019-01-24T17:56:08.098Z,32.97
2019-01-24T17:58:38.060Z,32.10
2019-01-24T18:01:08.060Z,31.43
2019-01-24T18:03:38.480Z,31.43
2019-01-24T18:06:08.461Z,27.93
2019-01-24T18:08:38.324Z,27.73
2019-01-24T18:11:08.295Z,29.30
2019-01-24T18:13:38.278Z,33.07
2019-01-24T18:16:08.269Z,31.40
2019-01-24T18:18:38.103Z,32.83
2019-01-24T18:21:08.042Z,29.40
2019-01-24T18:23:38.025Z,30.90
2019-01-24T18:26:08.521Z,31.07
2019-01-24T18:28:38.782Z,31.10
2019-01-24T18:31:08.919Z,29.90
2019-01-24T18:33:39.231Z,32.20
2019-01-24T18:36:11.259Z,28.43
2019-01-24T18:38:41.496Z,30.67
2019-01-24T18:41:12.521Z,32.77
2019-01-24T18:43:42.374Z,34.67
2019-01-24T18:46:12.353Z,31.17
2019-01-24T18:48:42.504Z,32.00
2019-01-24T18:51:12.489Z,30.27
2019-01-24T18:53:42.529Z,32.43
2019-01-24T18:56:12.395Z,30.63
2019-01-24T18:58:42.378Z,32.90
2019-01-24T19:01:12.273Z,33.50
2019-01-24T19:03:42.771Z,29.33
2019-01-24T19:06:12.704Z,30.93
2019-01-24T19:08:45.940Z,28.97
2019-01-24T19:11:14.129Z,27.90
2019-01-24T19:13:43.970Z,30.17
2019-01-24T19:16:13.886Z,30.97
2019-01-24T19:18:44.094Z,32.10
2019-01-24T19:21:13.983Z,29.87
2019-01-24T19:23:43.894Z,30.30
2019-01-24T19:26:13.722Z,32.83
2019-01-24T19:28:43.878Z,30.80
2019-01-24T19:31:13.789Z,33.43
2019-01-24T19:33:45.430Z,28.10
2019-01-24T19:36:18.574Z,32.53
2019-01-24T19:38:53.040Z,33.93
2019-01-24T19:41:20.016Z,32.13
2019-01-24T19:43:49.835Z,31.67
2019-01-24T19:46:20.047Z,32.77
2019-01-24T19:48:49.861Z,32.50
2019-01-24T19:51:19.760Z,35.10
2019-01-24T19:53:49.684Z,33.27
2019-01-24T19:56:20.195Z,32.40
2019-01-24T19:58:50.047Z,31.23
2019-01-24T20:01:19.855Z,32.50
2019-01-24T20:03:49.759Z,31.13
2019-01-24T20:06:19.575Z,31.93
2019-01-24T20:08:49.476Z,30.13
2019-01-24T20:11:19.433Z,33.07
2019-01-24T20:13:49.260Z,33.60
2019-01-24T20:16:19.090Z,31.87
2019-01-24T20:18:48.939Z,29.80
2019-01-24T20:21:18.827Z,30.63
2019-01-24T20:23:49.863Z,30.80
2019-01-24T20:26:20.726Z,27.87
2019-01-24T20:28:50.616Z,32.23
2019-01-24T20:31:20.515Z,30.20
2019-01-24T20:33:51.082Z,33.27
2019-01-24T20:36:22.303Z,31.17
2019-01-24T20:38:52.569Z,28.07
2019-01-24T20:41:22.462Z,33.73
2019-01-24T20:43:52.422Z,30.43
2019-01-24T20:46:22.286Z,31.60
2019-01-24T20:48:52.103Z,31.57
2019-01-24T20:51:22.002Z,32.23
2019-01-24T20:53:51.969Z,31.27
2019-01-24T20:56:21.939Z,31.57
2019-01-24T20:58:52.159Z,29.80
2019-01-24T21:01:22.068Z,29.80
2019-01-24T21:03:55.369Z,30.20
2019-01-24T21:06:23.624Z,28.60
2019-01-24T21:08:53.652Z,28.03
2019-01-24T21:11:23.459Z,28.80
2019-01-24T21:13:54.095Z,29.77
2019-01-24T21:16:23.922Z,30.43
2019-01-24T21:18:53.828Z,29.33
2019-01-24T21:21:23.863Z,25.40
2019-01-24T21:23:54.916Z,28.23
2019-01-24T21:26:24.920Z,27.20
2019-01-24T21:28:54.733Z,28.30
2019-01-24T21:31:24.547Z,28.37
2019-01-24T21:33:55.669Z,29.47
2019-01-24T21:36:25.922Z,27.87
2019-01-24T21:38:57.137Z,26.93
2019-01-24T21:41:27.047Z,30.20
2019-01-24T21:43:56.874Z,23.40
2019-01-24T21:46:26.802Z,27.00
2019-01-24T21:48:56.642Z,25.07
2019-01-24T21:51:26.558Z,26.00
2019-01-24T21:53:56.411Z,25.03
2019-01-24T21:56:26.379Z,23.47
2019-01-24T21:58:56.209Z,23.93
2019-01-24T22:01:26.347Z,22.33
2019-01-24T22:03:56.179Z,22.40
2019-01-24T22:06:26.970Z,25.13
2019-01-24T22:08:56.868Z,22.03
2019-01-24T22:11:26.971Z,23.50
2019-01-24T22:13:56.826Z,21.53
2019-01-24T22:16:27.366Z,24.27
2019-01-24T22:18:57.263Z,21.47
2019-01-24T22:21:27.186Z,23.83
2019-01-24T22:23:57.015Z,20.97
2019-01-24T22:26:26.913Z,21.00
2019-01-24T22:28:57.683Z,20.80
2019-01-24T22:31:27.522Z,20.37
2019-01-24T22:33:59.356Z,20.27
2019-01-24T22:36:29.209Z,20.43
2019-01-24T22:39:00.817Z,20.23
2019-01-24T22:41:30.644Z,20.57
2019-01-24T22:44:00.472Z,18.83
2019-01-24T22:46:30.394Z,18.20
2019-01-24T22:49:00.219Z,19.13
2019-01-24T22:51:30.184Z,18.47
2019-01-24T22:54:00.077Z,17.50
2019-01-24T22:56:35.371Z,18.23
2019-01-24T22:59:01.550Z,17.87
2019-01-24T23:01:56.408Z,18.87
2019-01-24T23:04:26.582Z,16.80
2019-01-24T23:06:56.843Z,17.80
2019-01-24T23:09:27.235Z,16.33
2019-01-24T23:11:57.202Z,18.10
2019-01-24T23:14:27.033Z,18.37
2019-01-24T23:16:56.961Z,16.43
2019-01-24T23:19:26.839Z,17.33
2019-01-24T23:21:56.669Z,18.10
2019-01-24T23:24:26.567Z,18.37
2019-01-24T23:26:56.406Z,17.20
2019-01-24T23:29:26.239Z,15.83
2019-01-24T23:31:58.110Z,14.60
2019-01-24T23:34:28.134Z,16.07
2019-01-24T23:36:58.036Z,13.77
2019-01-24T23:39:28.675Z,15.40
2019-01-24T23:41:59.275Z,15.93
2019-01-24T23:44:29.168Z,16.27
2019-01-24T23:47:01.754Z,14.97
2019-01-24T23:49:31.691Z,15.67
2019-01-24T23:52:01.524Z,16.63
2019-01-24T23:54:31.350Z,14.90
2019-01-24T23:57:02.371Z,15.73
2019-01-24T23:59:32.262Z,14.37
